Time;durP1;ratioP1;P1;durP2;ratioP2;P2;SDS_P1;SDS_P2;PMS_P1;PMS_P2;Temp;Humidity;BMP_temperature;BMP_pressure;BME280_temperature;BME280_humidity;BME280_pressure;Samples;Min_cycle;Max_cycle;Signal;HPM_P1;HPM_P2
2022/09/12 00:01:49;;;;;;;;;;;;;;;17.17;65.38;100183.56;5384538;32;44712;-69
2022/09/12 00:04:51;;;;;;;;;;;;;;;16.52;67.94;100202.13;5368516;32;32904;-73
2022/09/12 00:07:53;;;;;;;;;;;;;;;16.43;68.30;100202.75;5394926;32;33802;-72
2022/09/12 00:10:54;;;;;;;;;;;;;;;16.66;67.94;100191.44;5346385;32;33980;-69
2022/09/12 00:13:57;;;;;;;;;;;;;;;16.84;67.08;100196.50;5387911;32;33736;-70
2022/09/12 00:16:59;;;;;;;;;;;;;;;16.35;68.35;100197.09;5376909;32;33733;-69
2022/09/12 00:20:01;;;;;;;;;;;;;;;16.13;69.38;100197.66;5365546;32;33867;-72
2022/09/12 00:23:03;;;;;;;;;;;;;;;16.69;67.41;100196.56;5392156;32;33585;-70
2022/09/12 00:26:05;;;;;;;;;;;;;;;16.42;68.54;100190.41;5362452;32;32839;-69
2022/09/12 00:29:07;;;;;;;;;;;;;;;16.18;69.26;100199.06;5388468;32;32969;-69
2022/09/12 00:32:09;;;;;;;;;;;;;;;16.37;68.80;100196.06;5369007;32;33295;-73
2022/09/12 00:35:11;;;;;;;;;;;;;;;15.91;71.23;100206.16;5380563;32;33317;-73
2022/09/12 00:38:13;;;;;;;;;;;;;;;16.22;70.28;100199.69;5376206;32;34075;-70
2022/09/12 00:41:17;;;;;;;;;;;;;;;16.16;70.31;100202.75;5374529;32;33226;-73
2022/09/12 00:44:21;;;;;;;;;;;;;;;16.12;69.77;100206.56;5386357;32;44617;-68
2022/09/12 00:47:26;;;;;;;;;;;;;;;15.97;71.43;100214.56;5372037;32;33740;-69
2022/09/12 00:50:28;;;;;;;;;;;;;;;16.08;70.96;100203.25;5376689;32;34116;-69
2022/09/12 00:53:30;;;;;;;;;;;;;;;15.91;71.07;100207.00;5370316;32;33424;-69
2022/09/12 00:56:32;;;;;;;;;;;;;;;15.64;72.53;100200.78;5355961;32;32405;-70
2022/09/12 00:59:37;;;;;;;;;;;;;;;15.76;72.22;100204.47;5369089;32;33175;-69
2022/09/12 01:02:39;;;;;;;;;;;;;;;15.92;71.56;100205.19;5371726;32;34134;-73
2022/09/12 01:06:07;;;;;;;;;;;;;;;15.83;72.38;100211.06;5385840;32;32997;-70
2022/09/12 01:09:10;;;;;;;;;;;;;;;15.73;72.34;100207.31;5361750;32;32997;-73
2022/09/12 01:12:12;;;;;;;;;;;;;;;15.70;72.24;100201.25;5373450;32;33839;-72
2022/09/12 01:15:14;;;;;;;;;;;;;;;15.57;72.28;100200.28;5348411;32;33168;-74
2022/09/12 01:18:17;;;;;;;;;;;;;;;16.06;70.26;100199.00;5373389;32;33518;-72
2022/09/12 01:21:20;;;;;;;;;;;;;;;16.15;70.65;100191.28;5382644;32;44624;-69
2022/09/12 01:24:40;;;;;;;;;;;;;;;15.69;71.44;100185.44;5365978;32;33585;-74
2022/09/12 01:27:45;;;;;;;;;;;;;;;16.24;69.89;100182.75;5389962;32;33965;-69
2022/09/12 01:30:53;;;;;;;;;;;;;;;15.61;71.18;100185.91;5361572;32;36652;-73
2022/09/12 01:33:56;;;;;;;;;;;;;;;15.78;70.84;100191.94;5378961;32;34179;-69
2022/09/12 01:37:11;;;;;;;;;;;;;;;16.18;69.83;100193.75;5384069;32;33083;-69
2022/09/12 01:40:15;;;;;;;;;;;;;;;16.13;70.02;100190.53;5362762;32;33725;-71
2022/09/12 01:43:27;;;;;;;;;;;;;;;16.01;70.43;100199.28;5391498;32;44709;-70
2022/09/12 01:46:49;;;;;;;;;;;;;;;15.98;70.55;100202.16;5364541;32;33814;-73
2022/09/12 01:49:51;;;;;;;;;;;;;;;15.83;70.82;100200.47;5369110;32;45205;-73
2022/09/12 01:52:55;;;;;;;;;;;;;;;15.67;71.06;100196.16;5380816;32;34135;-72
2022/09/12 01:55:59;;;;;;;;;;;;;;;16.05;70.16;100211.41;5340094;32;33403;-74
2022/09/12 01:59:04;;;;;;;;;;;;;;;16.57;67.63;100192.06;5371858;32;33695;-69
2022/09/12 02:02:08;;;;;;;;;;;;;;;16.21;68.19;100193.53;5373458;32;34164;-74
2022/09/12 02:05:19;;;;;;;;;;;;;;;16.30;68.34;100205.38;5369562;32;33936;-69
2022/09/12 02:08:41;;;;;;;;;;;;;;;15.92;69.89;100197.25;5359421;32;44857;-69
2022/09/12 02:11:42;;;;;;;;;;;;;;;16.32;68.05;100202.59;5341573;32;33719;-73
2022/09/12 02:14:49;;;;;;;;;;;;;;;16.19;68.69;100198.09;5381722;32;32992;-70
2022/09/12 02:17:50;;;;;;;;;;;;;;;16.07;69.62;100195.41;5372275;32;44483;-73
2022/09/12 02:20:52;;;;;;;;;;;;;;;16.19;68.84;100195.44;5366317;32;33667;-69
2022/09/12 02:23:55;;;;;;;;;;;;;;;16.21;68.48;100182.94;5362002;32;33063;-69
2022/09/12 02:27:10;;;;;;;;;;;;;;;15.50;71.46;100198.12;5380070;32;35347;-72
2022/09/12 02:30:13;;;;;;;;;;;;;;;16.27;69.40;100199.41;5379336;32;34585;-69
2022/09/12 02:33:18;;;;;;;;;;;;;;;17.05;65.88;100197.69;5370372;32;33316;-73
2022/09/12 02:36:40;;;;;;;;;;;;;;;16.42;67.92;100195.72;5392468;32;44759;-69
2022/09/12 02:39:41;;;;;;;;;;;;;;;15.91;70.27;100193.75;5363488;32;33894;-72
2022/09/12 02:42:46;;;;;;;;;;;;;;;15.68;71.91;100208.44;5378803;32;33262;-73
2022/09/12 02:45:48;;;;;;;;;;;;;;;16.02;70.92;100211.59;5357127;32;45202;-70
2022/09/12 02:48:50;;;;;;;;;;;;;;;16.14;70.30;100202.84;5356942;32;33896;-70
2022/09/12 02:51:51;;;;;;;;;;;;;;;16.22;70.57;100212.94;5391249;32;34379;-73
2022/09/12 02:54:54;;;;;;;;;;;;;;;16.07;70.33;100213.97;5350412;32;34209;-73
2022/09/12 02:57:55;;;;;;;;;;;;;;;16.02;71.11;100210.75;5375865;32;33227;-74
2022/09/12 03:01:00;;;;;;;;;;;;;;;16.15;70.33;100212.50;5361780;32;35205;-69
2022/09/12 03:04:02;;;;;;;;;;;;;;;16.00;70.97;100220.59;5374381;32;33964;-69
2022/09/12 03:07:04;;;;;;;;;;;;;;;15.61;73.10;100219.50;5385674;32;33563;-72
2022/09/12 03:10:06;;;;;;;;;;;;;;;15.77;72.65;100209.66;5360298;32;32982;-73
2022/09/12 03:13:25;;;;;;;;;;;;;;;15.91;72.96;100214.94;5389993;32;33691;-73
2022/09/12 03:16:27;;;;;;;;;;;;;;;16.46;69.86;100219.31;5376421;32;35465;-73
2022/09/12 03:19:42;;;;;;;;;;;;;;;15.65;73.07;100221.91;5382235;32;34173;-73
2022/09/12 03:22:53;;;;;;;;;;;;;;;16.28;70.74;100222.31;5377641;32;32984;-74
2022/09/12 03:25:56;;;;;;;;;;;;;;;16.42;69.89;100216.94;5374961;32;47114;-73
2022/09/12 03:28:58;;;;;;;;;;;;;;;16.50;69.03;100225.28;5373052;32;33640;-73
2022/09/12 03:32:00;;;;;;;;;;;;;;;15.92;70.17;100218.44;5369898;32;33603;-69
2022/09/12 03:35:02;;;;;;;;;;;;;;;16.46;68.09;100221.97;5382180;32;33063;-69
2022/09/12 03:38:06;;;;;;;;;;;;;;;15.54;71.85;100224.31;5352240;32;33237;-73
2022/09/12 03:41:08;;;;;;;;;;;;;;;15.72;71.84;100225.00;5383007;32;32240;-70
2022/09/12 03:44:10;;;;;;;;;;;;;;;16.13;70.41;100232.12;5381454;32;34519;-73
2022/09/12 03:47:12;;;;;;;;;;;;;;;15.50;71.81;100222.81;5370878;32;33050;-72
2022/09/12 03:50:14;;;;;;;;;;;;;;;16.10;70.18;100221.69;5379567;32;33942;-74
2022/09/12 03:53:15;;;;;;;;;;;;;;;16.62;67.12;100227.13;5370136;32;32933;-74
2022/09/12 03:56:18;;;;;;;;;;;;;;;16.31;68.58;100222.97;5345234;32;45346;-73
2022/09/12 03:59:20;;;;;;;;;;;;;;;15.98;69.69;100228.66;5368538;32;33040;-69
2022/09/12 04:02:22;;;;;;;;;;;;;;;16.89;66.28;100218.28;5382355;32;33807;-71
2022/09/12 04:05:24;;;;;;;;;;;;;;;16.67;66.05;100230.28;5368564;32;33426;-72
2022/09/12 04:08:25;;;;;;;;;;;;;;;16.43;67.09;100229.28;5372934;32;33911;-72
2022/09/12 04:11:27;;;;;;;;;;;;;;;15.82;70.19;100223.47;5385601;32;32424;-69
2022/09/12 04:14:29;;;;;;;;;;;;;;;15.90;69.18;100228.28;5364488;32;33545;-69
2022/09/12 04:17:31;;;;;;;;;;;;;;;16.18;67.98;100235.34;5390565;32;34078;-72
2022/09/12 04:20:33;;;;;;;;;;;;;;;15.82;68.95;100220.81;5378868;32;33808;-72
2022/09/12 04:23:35;;;;;;;;;;;;;;;16.20;66.69;100214.84;5377249;32;33655;-70
2022/09/12 04:26:36;;;;;;;;;;;;;;;16.20;67.67;100223.66;5389820;32;33576;-72
2022/09/12 04:29:38;;;;;;;;;;;;;;;16.14;67.21;100221.41;5365811;32;32956;-69
2022/09/12 04:32:40;;;;;;;;;;;;;;;15.82;68.53;100226.13;5394396;32;32894;-73
2022/09/12 04:35:44;;;;;;;;;;;;;;;16.00;67.71;100226.75;5363286;32;33419;-68
2022/09/12 04:38:46;;;;;;;;;;;;;;;15.89;68.48;100229.22;5380918;32;35619;-73
2022/09/12 04:41:48;;;;;;;;;;;;;;;16.22;67.70;100237.66;5379212;32;45124;-73
2022/09/12 04:44:50;;;;;;;;;;;;;;;15.72;69.07;100218.88;5369523;32;33198;-73
2022/09/12 04:47:52;;;;;;;;;;;;;;;16.71;65.55;100223.87;5386258;32;33554;-73
2022/09/12 04:50:54;;;;;;;;;;;;;;;16.44;66.05;100226.53;5360386;32;33876;-73
2022/09/12 04:53:57;;;;;;;;;;;;;;;16.27;66.76;100228.56;5381478;32;33492;-74
2022/09/12 04:56:59;;;;;;;;;;;;;;;16.97;64.68;100231.88;5345219;32;33479;-73
2022/09/12 05:00:03;;;;;;;;;;;;;;;17.52;62.24;100234.22;5382013;32;33917;-70
2022/09/12 05:03:08;;;;;;;;;;;;;;;17.23;62.60;100233.59;5371866;32;33827;-73
2022/09/12 05:06:15;;;;;;;;;;;;;;;17.71;61.36;100239.12;5377148;32;32835;-74
2022/09/12 05:09:16;;;;;;;;;;;;;;;16.92;62.98;100240.13;5385432;32;34733;-73
2022/09/12 05:12:18;;;;;;;;;;;;;;;17.82;61.15;100236.53;5369869;32;46194;-75
2022/09/12 05:15:20;;;;;;;;;;;;;;;19.01;57.03;100229.53;5366304;32;33423;-69
2022/09/12 05:18:22;;;;;;;;;;;;;;;19.82;54.78;100236.50;5370076;32;34358;-69
2022/09/12 05:21:24;;;;;;;;;;;;;;;19.37;54.51;100231.16;5382981;32;33865;-71
2022/09/12 05:24:26;;;;;;;;;;;;;;;20.25;52.54;100238.38;5352260;32;34064;-74
2022/09/12 05:27:28;;;;;;;;;;;;;;;21.08;49.64;100246.56;5371371;32;34045;-73
2022/09/12 05:30:30;;;;;;;;;;;;;;;22.14;47.24;100226.66;5379875;32;33430;-71
2022/09/12 05:33:32;;;;;;;;;;;;;;;22.78;45.16;100241.34;5367027;32;34287;-69
2022/09/12 05:36:35;;;;;;;;;;;;;;;22.75;43.87;100244.34;5383688;32;33370;-75
2022/09/12 05:39:37;;;;;;;;;;;;;;;22.62;43.98;100253.50;5365851;32;33403;-74
2022/09/12 05:42:39;;;;;;;;;;;;;;;21.41;47.12;100273.22;5378984;32;32982;-80
2022/09/12 05:45:42;;;;;;;;;;;;;;;21.24;47.60;100282.66;5360997;32;34666;-84
2022/09/12 05:48:44;;;;;;;;;;;;;;;22.37;45.46;100262.06;5341940;32;32742;-72
2022/09/12 05:51:46;;;;;;;;;;;;;;;23.33;42.84;100257.69;5375413;32;34276;-83
2022/09/12 05:54:48;;;;;;;;;;;;;;;22.63;44.92;100265.91;5357190;32;46013;-70
2022/09/12 05:57:50;;;;;;;;;;;;;;;23.00;42.94;100265.22;5371497;32;34845;-83
2022/09/12 06:00:52;;;;;;;;;;;;;;;22.90;43.43;100269.72;5357973;32;34046;-68
2022/09/12 06:03:55;;;;;;;;;;;;;;;21.52;46.27;100271.34;5379496;32;33121;-83
2022/09/12 06:06:58;;;;;;;;;;;;;;;22.00;46.20;100269.84;5366889;32;34689;-86
2022/09/12 06:10:00;;;;;;;;;;;;;;;23.52;42.89;100260.31;5367908;32;35088;-81
2022/09/12 06:13:03;;;;;;;;;;;;;;;24.87;39.25;100258.72;5369789;32;32975;-71
2022/09/12 06:16:07;;;;;;;;;;;;;;;23.33;42.38;100266.56;5347188;32;33029;-70
2022/09/12 06:23:00;;;;;;;;;;;;;;;;;;;;;
2022/09/12 06:26:27;;;;;;;;;;;;;;;23.00;43.28;100273.25;5392366;27;34946;-77
2022/09/12 06:29:31;;;;;;;;;;;;;;;22.84;43.41;100275.63;5346661;32;34367;-83
2022/09/12 06:32:33;;;;;;;;;;;;;;;23.00;42.66;100267.06;5338148;32;34181;-73
2022/09/12 06:35:36;;;;;;;;;;;;;;;22.45;44.13;100272.91;5334126;32;34013;-71
2022/09/12 06:38:38;;;;;;;;;;;;;;;23.93;40.80;100268.94;5349829;32;32906;-74
2022/09/12 06:41:40;;;;;;;;;;;;;;;23.67;41.73;100266.91;5336928;32;32883;-71
2022/09/12 06:44:45;;;;;;;;;;;;;;;25.10;38.41;100280.59;5345404;32;32935;-76
2022/09/12 06:47:47;;;;;;;;;;;;;;;25.32;37.73;100282.78;5331841;32;32918;-71
2022/09/12 06:50:56;;;;;;;;;;;;;;;25.79;36.89;100266.28;5343440;32;34440;-84
2022/09/12 06:53:58;;;;;;;;;;;;;;;25.85;36.95;100272.88;5331348;32;33239;-87
2022/09/12 06:57:01;;;;;;;;;;;;;;;24.24;39.48;100264.94;5326914;32;32960;-72
2022/09/12 07:00:04;;;;;;;;;;;;;;;24.75;38.61;100276.91;5346191;32;44635;-75
2022/09/12 07:03:06;;;;;;;;;;;;;;;24.92;38.06;100266.28;5318424;32;34321;-76
2022/09/12 07:06:09;;;;;;;;;;;;;;;24.24;39.97;100277.53;5338094;32;34452;-72
2022/09/12 07:09:13;;;;;;;;;;;;;;;24.64;39.26;100269.06;5321768;32;33174;-75
2022/09/12 07:12:14;;;;;;;;;;;;;;;24.51;38.29;100271.28;5342165;32;33659;-71
2022/09/12 07:15:16;;;;;;;;;;;;;;;25.79;36.63;100268.13;5328409;32;33328;-82
2022/09/12 07:18:19;;;;;;;;;;;;;;;25.46;37.45;100278.69;5316551;32;34295;-70
2022/09/12 07:21:21;;;;;;;;;;;;;;;26.86;34.95;100272.81;5340259;32;33065;-76
2022/09/12 07:24:23;;;;;;;;;;;;;;;26.88;34.52;100278.88;5335275;32;34379;-76
2022/09/12 07:27:25;;;;;;;;;;;;;;;26.14;35.92;100276.00;5330123;32;34271;-69
2022/09/12 07:30:27;;;;;;;;;;;;;;;26.71;34.19;100278.84;5340537;32;32916;-69
2022/09/12 07:33:29;;;;;;;;;;;;;;;25.51;35.96;100286.28;5340010;32;32917;-70
2022/09/12 07:36:31;;;;;;;;;;;;;;;25.95;35.30;100276.25;5345146;32;34287;-69
2022/09/12 07:39:33;;;;;;;;;;;;;;;26.65;34.22;100273.28;5334044;32;34421;-74
2022/09/12 07:42:35;;;;;;;;;;;;;;;23.44;39.28;100292.34;5349128;32;34179;-71
2022/09/12 07:45:40;;;;;;;;;;;;;;;24.34;38.17;100283.69;5343555;32;31046;-75
2022/09/12 07:48:43;;;;;;;;;;;;;;;25.58;35.21;100284.63;5333035;32;33060;-70
2022/09/12 07:51:45;;;;;;;;;;;;;;;25.36;35.43;100283.31;5335169;32;33254;-79
2022/09/12 07:54:47;;;;;;;;;;;;;;;25.49;34.84;100285.56;5341372;32;33216;-75
2022/09/12 07:57:49;;;;;;;;;;;;;;;25.53;34.54;100287.78;5344626;32;34365;-77
2022/09/12 08:00:51;;;;;;;;;;;;;;;24.78;36.20;100290.03;5338308;32;35029;-76
2022/09/12 08:03:57;;;;;;;;;;;;;;;25.15;35.42;100285.50;5342539;32;34202;-76
2022/09/12 08:06:59;;;;;;;;;;;;;;;25.67;33.71;100283.66;5336594;32;34201;-73
2022/09/12 08:10:01;;;;;;;;;;;;;;;24.98;35.57;100281.81;5353141;32;34381;-85
2022/09/12 08:13:02;;;;;;;;;;;;;;;25.19;35.22;100284.22;5335762;32;34503;-83
2022/09/12 08:16:06;;;;;;;;;;;;;;;26.85;31.85;100273.81;5322143;32;44908;-83
2022/09/12 08:19:07;;;;;;;;;;;;;;;25.17;34.94;100281.66;5346503;32;32957;-75
2022/09/12 08:22:10;;;;;;;;;;;;;;;26.00;34.00;100283.84;5338346;32;33010;-77
2022/09/12 08:25:12;;;;;;;;;;;;;;;26.06;33.74;100277.81;5351919;32;34485;-77
2022/09/12 08:28:15;;;;;;;;;;;;;;;26.24;33.87;100285.81;5330373;32;32961;-71
2022/09/12 08:31:19;;;;;;;;;;;;;;;25.11;35.72;100285.81;5330412;32;33003;-70
2022/09/12 08:34:21;;;;;;;;;;;;;;;25.06;36.66;100296.22;5333882;32;34219;-73
2022/09/12 08:37:28;;;;;;;;;;;;;;;25.87;35.30;100281.59;5333807;32;34567;-76
2022/09/12 08:40:30;;;;;;;;;;;;;;;26.73;33.74;100276.00;5348937;32;33867;-75
2022/09/12 08:43:51;;;;;;;;;;;;;;;26.67;33.82;100276.69;5322177;32;34369;-75
2022/09/12 08:46:58;;;;;;;;;;;;;;;25.60;35.53;100283.47;5331446;32;34334;-80
2022/09/12 08:50:02;;;;;;;;;;;;;;;25.64;35.64;100281.31;5327060;32;33213;-71
2022/09/12 08:53:15;;;;;;;;;;;;;;;24.90;37.39;100277.19;5319639;32;45137;-72
2022/09/12 08:56:17;;;;;;;;;;;;;;;25.81;35.88;100258.88;5350710;32;34682;-73
2022/09/12 08:59:19;;;;;;;;;;;;;;;26.96;33.10;100271.63;5341141;32;34161;-72
2022/09/12 09:02:45;;;;;;;;;;;;;;;27.14;32.96;100271.50;5348718;32;32986;-69
2022/09/12 09:05:47;;;;;;;;;;;;;;;27.07;32.97;100272.34;5341620;32;34821;-70
2022/09/12 09:09:01;;;;;;;;;;;;;;;26.74;32.95;100266.91;5343725;32;34625;-70
2022/09/12 09:12:11;;;;;;;;;;;;;;;27.08;31.84;100272.16;5345603;32;46545;-69
2022/09/12 09:15:13;;;;;;;;;;;;;;;26.15;34.00;100272.31;5277913;32;938797;-68
2022/09/12 09:18:34;;;;;;;;;;;;;;;26.75;32.68;100259.66;5345449;32;33943;-71
2022/09/12 09:21:40;;;;;;;;;;;;;;;26.73;32.91;100259.84;5333354;32;44864;-79
2022/09/12 09:24:47;;;;;;;;;;;;;;;26.65;33.15;100263.34;5327329;32;33244;-69
2022/09/12 09:27:57;;;;;;;;;;;;;;;26.80;32.67;100258.16;5324453;32;33124;-69
2022/09/12 09:30:59;;;;;;;;;;;;;;;28.33;31.16;100257.13;5308890;32;33719;-70
2022/09/12 09:34:01;;;;;;;;;;;;;;;29.35;29.02;100246.87;5348561;32;33809;-72
2022/09/12 09:37:15;;;;;;;;;;;;;;;29.33;27.87;100257.91;5320599;32;33003;-74
2022/09/12 09:40:17;;;;;;;;;;;;;;;29.32;27.84;100261.63;5335847;32;32975;-82
2022/09/12 09:43:22;;;;;;;;;;;;;;;26.71;32.14;100261.84;5333423;32;33131;-85
2022/09/12 09:46:24;;;;;;;;;;;;;;;29.12;28.33;100265.88;5330842;32;34288;-82
2022/09/12 09:49:27;;;;;;;;;;;;;;;26.92;31.34;100264.91;5349413;32;33041;-73
2022/09/12 09:52:29;;;;;;;;;;;;;;;27.89;30.01;100260.38;5333095;32;34309;-71
2022/09/12 09:55:33;;;;;;;;;;;;;;;27.51;30.54;100265.53;5334459;32;33719;-85
2022/09/12 09:58:35;;;;;;;;;;;;;;;26.83;31.37;100262.34;5322875;32;44565;-75
2022/09/12 10:01:47;;;;;;;;;;;;;;;25.46;33.50;100270.59;5336548;32;32585;-88
2022/09/12 10:04:54;;;;;;;;;;;;;;;25.66;33.45;100271.22;5334060;32;32847;-78
2022/09/12 10:07:57;;;;;;;;;;;;;;;26.35;32.16;100255.88;5332171;32;34252;-81
2022/09/12 10:11:06;;;;;;;;;;;;;;;26.42;32.55;100256.94;5339930;32;34315;-77
2022/09/12 10:14:27;;;;;;;;;;;;;;;25.89;33.52;100255.38;5321834;32;33181;-73
2022/09/12 10:17:42;;;;;;;;;;;;;;;27.83;30.67;100246.75;5336527;32;33706;-69
2022/09/12 10:20:44;;;;;;;;;;;;;;;25.34;34.48;100266.47;5317961;32;34199;-70
2022/09/12 10:23:46;;;;;;;;;;;;;;;23.91;37.20;100270.91;5332568;32;33428;-77
2022/09/12 10:26:53;;;;;;;;;;;;;;;23.05;38.77;100275.50;5331132;32;33471;-74
2022/09/12 10:30:27;;;;;;;;;;;;;;;23.73;37.51;100276.22;5318810;32;33186;-76
2022/09/12 10:33:30;;;;;;;;;;;;;;;22.73;39.64;100273.91;5332634;32;34552;-74
2022/09/12 10:36:36;;;;;;;;;;;;;;;22.68;39.34;100273.53;5336188;32;34250;-73
2022/09/12 10:39:38;;;;;;;;;;;;;;;23.10;38.81;100271.41;5336132;32;44440;-75
2022/09/12 10:42:44;;;;;;;;;;;;;;;23.87;37.62;100265.00;5345032;32;33185;-77
2022/09/12 10:45:49;;;;;;;;;;;;;;;23.08;38.94;100262.66;5321277;32;33546;-65
2022/09/12 10:48:51;;;;;;;;;;;;;;;23.24;39.30;100262.91;5350959;32;35288;-73
2022/09/12 10:51:54;;;;;;;;;;;;;;;23.99;37.10;100262.97;5328284;32;33227;-74
2022/09/12 10:54:56;;;;;;;;;;;;;;;24.33;36.51;100252.44;5342677;32;33231;-72
2022/09/12 10:57:58;;;;;;;;;;;;;;;23.92;37.62;100257.34;5332556;32;32703;-74
2022/09/12 11:01:20;;;;;;;;;;;;;;;23.88;37.59;100255.94;5340218;32;33138;-69
2022/09/12 11:04:45;;;;;;;;;;;;;;;22.77;40.46;100247.72;5307853;32;34285;-70
2022/09/12 11:07:47;;;;;;;;;;;;;;;23.38;38.88;100242.84;5322428;32;33129;-79
2022/09/12 11:10:53;;;;;;;;;;;;;;;24.12;36.98;100251.88;5331222;32;34037;-77
2022/09/12 11:14:06;;;;;;;;;;;;;;;23.72;37.70;100248.53;5320323;32;33208;-77
2022/09/12 11:17:20;;;;;;;;;;;;;;;23.36;38.36;100254.69;5323772;32;44651;-78
2022/09/12 11:20:31;;;;;;;;;;;;;;;23.03;38.36;100245.31;5352616;32;33069;-76
2022/09/12 11:23:39;;;;;;;;;;;;;;;23.58;37.90;100235.59;5327812;32;42717;-72
2022/09/12 11:26:43;;;;;;;;;;;;;;;23.47;37.78;100247.34;5346837;32;44916;-77
2022/09/12 11:29:49;;;;;;;;;;;;;;;23.65;37.03;100238.56;5334102;32;33380;-78
2022/09/12 11:32:59;;;;;;;;;;;;;;;24.31;36.26;100241.00;5335624;32;34660;-79
2022/09/12 11:36:01;;;;;;;;;;;;;;;24.05;36.45;100248.94;5358124;32;34142;-78
2022/09/12 11:39:12;;;;;;;;;;;;;;;23.49;37.39;100250.69;5342288;32;33250;-74
2022/09/12 11:42:20;;;;;;;;;;;;;;;24.13;36.59;100249.03;5349202;32;33496;-74
2022/09/12 11:45:23;;;;;;;;;;;;;;;23.89;36.76;100246.91;5339485;32;33008;-73
2022/09/12 11:48:28;;;;;;;;;;;;;;;23.74;37.51;100241.19;5340394;32;34067;-80
2022/09/12 11:51:34;;;;;;;;;;;;;;;24.58;35.20;100248.19;5348865;32;34684;-80
2022/09/12 11:54:38;;;;;;;;;;;;;;;23.22;37.36;100248.81;5319725;32;45456;-75
2022/09/12 11:57:49;;;;;;;;;;;;;;;22.24;39.72;100250.78;5354483;32;34042;-88
2022/09/12 12:00:55;;;;;;;;;;;;;;;22.48;38.95;100248.56;5339292;32;34496;-88
2022/09/12 12:03:57;;;;;;;;;;;;;;;22.41;39.66;100244.72;5347367;32;33376;-78
2022/09/12 12:07:08;;;;;;;;;;;;;;;22.54;39.48;100249.81;5344268;32;33821;-81
2022/09/12 12:10:25;;;;;;;;;;;;;;;22.56;39.65;100239.81;5344844;32;44494;-71
2022/09/12 12:13:34;;;;;;;;;;;;;;;22.34;39.93;100239.06;5347571;32;34365;-70
2022/09/12 12:16:36;;;;;;;;;;;;;;;22.77;39.52;100242.34;5322485;32;44308;-84
2022/09/12 12:19:39;;;;;;;;;;;;;;;22.54;40.08;100228.38;5334209;32;34524;-82
2022/09/12 12:22:49;;;;;;;;;;;;;;;21.75;41.86;100223.00;5329478;32;33264;-75
2022/09/12 12:25:53;;;;;;;;;;;;;;;24.01;37.73;100209.97;5321080;32;33082;-70
2022/09/12 12:28:56;;;;;;;;;;;;;;;24.45;36.77;100212.81;5334442;32;32978;-78
2022/09/12 12:31:58;;;;;;;;;;;;;;;24.05;37.13;100216.72;5327427;32;33874;-72
2022/09/12 12:35:01;;;;;;;;;;;;;;;24.01;37.18;100213.50;5349071;32;33681;-72
2022/09/12 12:38:27;;;;;;;;;;;;;;;23.18;38.19;100215.22;5321756;32;44726;-80
2022/09/12 12:41:35;;;;;;;;;;;;;;;22.45;39.36;100222.03;5336453;32;33094;-73
2022/09/12 12:44:48;;;;;;;;;;;;;;;23.54;38.01;100203.84;5342966;32;44839;-70
2022/09/12 12:48:00;;;;;;;;;;;;;;;23.92;37.50;100218.94;5337118;32;33009;-71
2022/09/12 12:51:22;;;;;;;;;;;;;;;23.41;38.62;100214.88;5344810;32;45047;-72
2022/09/12 12:54:27;;;;;;;;;;;;;;;23.35;38.02;100220.84;5340416;32;33259;-83
2022/09/12 12:57:30;;;;;;;;;;;;;;;24.00;37.23;100208.28;5323380;32;33231;-81
2022/09/12 13:00:35;;;;;;;;;;;;;;;23.43;38.36;100205.69;5328752;32;33088;-85
2022/09/12 13:03:39;;;;;;;;;;;;;;;24.09;36.71;100199.34;5327377;32;44766;-83
2022/09/12 13:06:45;;;;;;;;;;;;;;;22.51;39.64;100209.94;5336502;32;34785;-79
2022/09/12 13:09:51;;;;;;;;;;;;;;;23.24;38.62;100214.66;5327404;32;32908;-70
2022/09/12 13:12:53;;;;;;;;;;;;;;;22.44;39.92;100221.19;5336291;32;34363;-80
2022/09/12 13:15:55;;;;;;;;;;;;;;;22.89;39.35;100219.81;5307986;32;36949;-76
2022/09/12 13:18:59;;;;;;;;;;;;;;;22.71;39.71;100216.97;5329488;32;33055;-77
2022/09/12 13:22:00;;;;;;;;;;;;;;;22.71;39.75;100220.50;5348277;32;32937;-70
2022/09/12 13:25:15;;;;;;;;;;;;;;;22.93;39.29;100215.88;5325591;32;34527;-74
2022/09/12 13:28:18;;;;;;;;;;;;;;;22.60;39.82;100204.56;5334136;32;34271;-74
2022/09/12 13:31:23;;;;;;;;;;;;;;;22.38;40.07;100212.88;5333491;32;33071;-81
2022/09/12 13:34:26;;;;;;;;;;;;;;;23.32;38.53;100197.00;5333262;32;34593;-74
2022/09/12 13:37:48;;;;;;;;;;;;;;;23.12;38.44;100193.50;5343001;32;34349;-71
2022/09/12 13:41:07;;;;;;;;;;;;;;;22.79;38.55;100194.81;5338350;32;33124;-86
2022/09/12 13:44:10;;;;;;;;;;;;;;;23.40;37.81;100195.28;5342436;32;43735;-73
2022/09/12 13:47:15;;;;;;;;;;;;;;;22.74;38.36;100191.75;5340440;32;33585;-72
2022/09/12 13:50:25;;;;;;;;;;;;;;;22.93;38.12;100191.75;5341024;32;34369;-74
2022/09/12 13:53:34;;;;;;;;;;;;;;;22.61;38.62;100182.16;5329509;32;32974;-77
2022/09/12 13:56:45;;;;;;;;;;;;;;;22.95;38.01;100187.09;5328024;32;44410;-74
2022/09/12 13:59:54;;;;;;;;;;;;;;;23.39;37.54;100184.69;5329968;32;33178;-70
2022/09/12 14:06:19;;;;;;;;;;;;;;;23.71;35.26;100171.72;5325939;32;34565;-71
2022/09/12 14:09:22;;;;;;;;;;;;;;;24.09;33.19;100179.66;5343264;32;33001;-86
2022/09/12 14:12:39;;;;;;;;;;;;;;;23.40;33.41;100176.50;5338721;32;36031;-75
2022/09/12 14:15:44;;;;;;;;;;;;;;;23.84;32.67;100181.28;5327355;32;32602;-72
2022/09/12 14:18:48;;;;;;;;;;;;;;;22.66;34.29;100171.84;5322905;32;33944;-82
2022/09/12 14:21:54;;;;;;;;;;;;;;;23.61;33.31;100168.25;5341031;32;33878;-78
2022/09/12 14:24:57;;;;;;;;;;;;;;;23.34;33.47;100163.69;5333695;32;34297;-79
2022/09/12 14:27:59;;;;;;;;;;;;;;;23.34;34.09;100170.88;5339219;32;34118;-77
2022/09/12 14:31:01;;;;;;;;;;;;;;;24.41;32.15;100163.94;5347286;32;32304;-79
2022/09/12 14:34:13;;;;;;;;;;;;;;;23.51;33.23;100167.44;5336040;32;44688;-79
2022/09/12 14:37:15;;;;;;;;;;;;;;;23.30;33.02;100167.62;5345757;32;34170;-84
2022/09/12 14:40:18;;;;;;;;;;;;;;;23.11;33.50;100171.22;5337265;32;34506;-79
2022/09/12 14:43:24;;;;;;;;;;;;;;;23.19;33.49;100170.53;5321682;32;35907;-83
2022/09/12 14:46:27;;;;;;;;;;;;;;;23.18;33.69;100175.00;5352902;32;34281;-74
2022/09/12 14:49:32;;;;;;;;;;;;;;;23.30;33.55;100174.84;5332116;32;34354;-78
2022/09/12 14:52:34;;;;;;;;;;;;;;;24.04;32.30;100175.63;5328856;32;43020;-73
2022/09/12 14:55:41;;;;;;;;;;;;;;;23.09;33.02;100175.06;5337126;32;34197;-78
2022/09/12 14:58:44;;;;;;;;;;;;;;;23.15;32.90;100167.28;5338263;32;33037;-87
2022/09/12 15:01:45;;;;;;;;;;;;;;;23.01;33.10;100164.22;5340698;32;33034;-84
2022/09/12 15:04:51;;;;;;;;;;;;;;;23.93;31.91;100169.63;5337883;32;34190;-86
2022/09/12 15:07:57;;;;;;;;;;;;;;;23.30;32.38;100161.44;5350410;32;33036;-72
2022/09/12 15:10:59;;;;;;;;;;;;;;;22.52;33.63;100166.94;5334750;32;33110;-74
2022/09/12 15:14:13;;;;;;;;;;;;;;;22.61;34.01;100163.41;5339043;32;34688;-75
2022/09/12 15:17:15;;;;;;;;;;;;;;;22.76;33.31;100165.66;5312930;32;33027;-80
2022/09/12 15:20:17;;;;;;;;;;;;;;;22.93;33.65;100162.28;5322935;32;33186;-85
2022/09/12 15:23:22;;;;;;;;;;;;;;;23.37;33.22;100165.22;5350030;32;33316;-85
2022/09/12 15:26:26;;;;;;;;;;;;;;;22.56;34.15;100152.28;5335040;32;36107;-77
2022/09/12 15:29:28;;;;;;;;;;;;;;;22.86;33.75;100169.13;5348564;32;34483;-77
2022/09/12 15:32:30;;;;;;;;;;;;;;;22.36;34.59;100161.31;5325701;32;34407;-77
2022/09/12 15:35:32;;;;;;;;;;;;;;;22.52;34.48;100158.91;5335501;32;33210;-79
2022/09/12 15:38:34;;;;;;;;;;;;;;;23.01;33.62;100154.34;5330062;32;44430;-81
2022/09/12 15:41:36;;;;;;;;;;;;;;;23.27;33.02;100161.75;5336962;32;33170;-78
2022/09/12 15:44:39;;;;;;;;;;;;;;;22.84;33.98;100165.78;5345442;32;33160;-78
2022/09/12 15:47:41;;;;;;;;;;;;;;;22.96;33.72;100161.97;5334286;32;33760;-77
2022/09/12 15:50:42;;;;;;;;;;;;;;;22.84;33.68;100152.37;5351879;32;33125;-79
2022/09/12 15:53:45;;;;;;;;;;;;;;;23.10;33.18;100153.47;5332905;32;33055;-78
2022/09/12 15:56:48;;;;;;;;;;;;;;;22.10;34.49;100161.88;5337710;32;34790;-78
2022/09/12 15:59:50;;;;;;;;;;;;;;;22.39;34.26;100159.19;5330943;32;35794;-78